Time;durP1;ratioP1;P1;durP2;ratioP2;P2;SDS_P1;SDS_P2;PMS_P1;PMS_P2;Temp;Humidity;BMP_temperature;BMP_pressure;BME280_temperature;BME280_humidity;BME280_pressure;Samples;Min_cycle;Max_cycle;Signal;HPM_P1;HPM_P2
2024/02/06 00:01:26;;;;;;;10.88;8.07;;;;;;;7.40;95.07;98515.59;4072230;29;20206;-91
2024/02/06 00:03:30;;;;;;;13.45;8.45;;;;;;;7.41;95.44;98524.22;4086681;28;20289;-89
2024/02/06 00:05:32;;;;;;;15.20;8.88;;;;;;;7.42;95.76;98524.13;4056810;29;20488;-90
2024/02/06 00:07:35;;;;;;;11.70;8.30;;;;;;;7.44;94.51;98524.91;4076545;29;20221;-90
2024/02/06 00:09:40;;;;;;;12.15;8.27;;;;;;;7.47;96.37;98523.91;4081215;29;20642;-91
2024/02/06 00:12:15;;;;;;;11.35;8.52;;;;;;;7.48;96.14;98517.81;4057070;29;20209;-90
2024/02/06 00:14:18;;;;;;;15.38;9.85;;;;;;;7.47;95.55;98524.75;4084562;28;20352;-91
2024/02/06 00:16:22;;;;;;;11.02;7.80;;;;;;;7.47;96.27;98527.34;4056533;29;20294;-91
2024/02/06 00:18:25;;;;;;;12.35;8.43;;;;;;;7.52;96.02;98533.16;4080079;29;20629;-91
2024/02/06 00:20:28;;;;;;;12.48;8.57;;;;;;;7.56;96.00;98524.28;4077328;29;20206;-91
2024/02/06 00:22:31;;;;;;;13.90;8.15;;;;;;;7.60;96.45;98537.03;4078050;29;20206;-90
2024/02/06 00:24:34;;;;;;;13.90;8.73;;;;;;;7.64;96.20;98535.16;4064078;29;20217;-91
2024/02/06 00:26:38;;;;;;;12.18;8.45;;;;;;;7.65;94.59;98531.63;4066805;29;20755;-89
2024/02/06 00:28:42;;;;;;;15.05;9.00;;;;;;;7.66;95.33;98528.13;4064933;29;20215;-91
2024/02/06 00:30:45;;;;;;;10.63;8.32;;;;;;;7.63;95.10;98523.91;4092251;28;20208;-91
2024/02/06 00:32:49;;;;;;;12.02;8.20;;;;;;;7.64;94.57;98529.97;4090408;28;20272;-92
2024/02/06 00:34:56;;;;;;;10.10;7.45;;;;;;;7.64;94.64;98522.19;4053295;29;20697;-92
2024/02/06 00:37:00;;;;;;;12.02;7.65;;;;;;;7.62;95.09;98517.06;4056954;29;20209;-89
2024/02/06 00:39:03;;;;;;;14.88;9.10;;;;;;;7.61;94.61;98520.56;4075281;29;20701;-91
2024/02/06 00:41:06;;;;;;;16.58;7.85;;;;;;;7.62;94.00;98524.84;4093792;28;20800;-91
2024/02/06 00:43:09;;;;;;;10.23;7.45;;;;;;;7.63;94.18;98526.50;4078743;29;20206;-91
2024/02/06 00:45:14;;;;;;;13.25;7.22;;;;;;;7.62;94.14;98524.84;4073187;29;20221;-91
2024/02/06 00:47:19;;;;;;;10.50;7.18;;;;;;;7.62;93.68;98524.84;4073250;29;20211;-92
2024/02/06 00:49:22;;;;;;;10.52;7.50;;;;;;;7.65;93.46;98527.28;4078465;29;20911;-90
2024/02/06 00:51:26;;;;;;;10.77;7.45;;;;;;;7.67;94.82;98527.22;4060300;29;20203;-91
2024/02/06 00:53:29;;;;;;;10.27;7.22;;;;;;;7.67;93.99;98529.81;4077641;29;20234;-91
2024/02/06 00:55:32;;;;;;;10.07;7.22;;;;;;;7.69;93.57;98533.16;4079036;29;20201;-90
2024/02/06 00:57:35;;;;;;;12.05;7.53;;;;;;;7.70;94.96;98525.31;4066003;29;20311;-91
2024/02/06 00:59:39;;;;;;;9.40;6.90;;;;;;;7.74;94.11;98525.97;4073662;29;20213;-90
2024/02/06 01:01:43;;;;;;;16.48;7.72;;;;;;;7.76;94.15;98522.41;4070744;29;20299;-90
2024/02/06 01:03:47;;;;;;;14.43;8.30;;;;;;;7.76;94.21;98529.34;4075726;29;20242;-92
2024/02/06 01:05:50;;;;;;;12.85;7.53;;;;;;;7.78;93.62;98532.72;4070506;29;21072;-92
2024/02/06 01:07:53;;;;;;;14.90;7.70;;;;;;;7.79;94.00;98532.63;4077396;29;20218;-90
2024/02/06 01:09:57;;;;;;;11.43;7.38;;;;;;;7.80;94.07;98531.69;4078761;29;20297;-91
2024/02/06 01:12:00;;;;;;;9.55;7.13;;;;;;;7.81;94.01;98527.38;4087823;28;20229;-91
2024/02/06 01:14:03;;;;;;;12.85;7.97;;;;;;;7.79;94.03;98534.41;4055619;29;20238;-90
2024/02/06 01:16:07;;;;;;;9.77;6.80;;;;;;;7.76;92.95;98524.16;4061967;29;20215;-87
2024/02/06 01:18:12;;;;;;;12.43;7.70;;;;;;;7.72;92.56;98527.81;4082191;28;20301;-89
2024/02/06 01:20:15;;;;;;;10.25;6.97;;;;;;;7.74;93.61;98523.38;4071662;29;20305;-91
2024/02/06 01:22:18;;;;;;;14.52;7.80;;;;;;;7.73;92.14;98525.16;4076121;29;20218;-91
2024/02/06 01:24:22;;;;;;;9.88;6.60;;;;;;;7.71;92.26;98532.19;4076146;29;20221;-90
2024/02/06 01:26:25;;;;;;;13.40;6.85;;;;;;;7.67;92.32;98524.63;4060250;29;20222;-90
2024/02/06 01:28:28;;;;;;;12.52;7.00;;;;;;;7.69;93.64;98522.78;4071956;29;20207;-90
2024/02/06 01:30:33;;;;;;;11.90;6.68;;;;;;;7.70;92.90;98514.91;4076224;29;20210;-90
2024/02/06 01:32:36;;;;;;;11.55;6.38;;;;;;;7.71;93.05;98516.59;4058988;29;20207;-91
2024/02/06 01:34:42;;;;;;;12.27;6.70;;;;;;;7.75;92.47;98525.06;4074132;29;20226;-90
2024/02/06 01:36:46;;;;;;;11.90;7.18;;;;;;;7.75;92.91;98525.91;4068772;29;20210;-91
2024/02/06 01:38:49;;;;;;;9.50;6.60;;;;;;;7.75;92.89;98523.31;4074920;29;20206;-89
2024/02/06 01:40:52;;;;;;;12.63;7.07;;;;;;;7.74;92.55;98520.78;4076596;29;20206;-90
2024/02/06 01:42:56;;;;;;;15.10;7.70;;;;;;;7.76;91.12;98526.75;4088250;28;20260;-91
2024/02/06 01:45:00;;;;;;;16.90;7.88;;;;;;;7.72;92.56;98527.81;4076453;29;20206;-90
2024/02/06 01:47:03;;;;;;;14.77;6.78;;;;;;;7.73;91.89;98529.50;4059364;29;20240;-90
2024/02/06 01:49:09;;;;;;;12.63;6.25;;;;;;;7.75;93.25;98530.25;4055312;29;20681;-92
2024/02/06 01:51:15;;;;;;;11.88;7.28;;;;;;;7.73;92.63;98529.50;4056629;29;20252;-91
2024/02/06 01:53:19;;;;;;;12.30;7.05;;;;;;;7.70;92.46;98524.47;4059776;29;20254;-91
2024/02/06 01:55:22;;;;;;;10.60;6.10;;;;;;;7.74;92.47;98518.19;4066093;29;20246;-87
2024/02/06 01:57:25;;;;;;;10.50;6.60;;;;;;;7.72;91.80;98528.66;4061942;29;20299;-89
2024/02/06 01:59:29;;;;;;;12.25;7.18;;;;;;;7.68;91.14;98526.28;4072157;29;20653;-87
2024/02/06 02:01:33;;;;;;;10.93;7.10;;;;;;;7.67;91.03;98525.44;4055176;29;20209;-91
2024/02/06 02:03:35;;;;;;;11.32;7.22;;;;;;;7.69;91.08;98522.78;4067708;29;20301;-90
2024/02/06 02:05:39;;;;;;;12.57;6.78;;;;;;;7.65;91.80;98524.69;4069093;29;20724;-90
2024/02/06 02:07:44;;;;;;;10.68;6.30;;;;;;;7.68;92.40;98521.94;4071431;29;20268;-90
2024/02/06 02:09:46;;;;;;;10.32;7.05;;;;;;;7.69;91.78;98522.78;4086132;28;20210;-90
2024/02/06 02:11:51;;;;;;;11.25;6.50;;;;;;;7.70;92.06;98520.09;4074045;29;20201;-89
2024/02/06 02:13:53;;;;;;;11.95;7.57;;;;;;;7.75;91.86;98523.31;4069840;29;20328;-90
2024/02/06 02:15:57;;;;;;;14.43;6.72;;;;;;;7.75;92.30;98523.31;4067019;29;20202;-90
2024/02/06 02:18:00;;;;;;;13.07;6.47;;;;;;;7.76;92.05;98519.81;4069746;29;20217;-89
2024/02/06 02:20:03;;;;;;;11.70;7.13;;;;;;;7.83;90.76;98517.72;4088043;28;20210;-91
2024/02/06 02:22:08;;;;;;;10.00;6.45;;;;;;;7.80;90.69;98512.69;4057135;29;20203;-89
2024/02/06 02:24:12;;;;;;;13.70;7.78;;;;;;;7.77;90.46;98515.44;4056295;29;20213;-91
2024/02/06 02:26:15;;;;;;;11.43;7.53;;;;;;;7.79;90.99;98524.00;4052453;29;20225;-91
2024/02/06 02:28:18;;;;;;;11.40;6.68;;;;;;;7.84;91.48;98524.63;4068596;29;20255;-90
2024/02/06 02:30:22;;;;;;;10.82;6.80;;;;;;;7.86;92.12;98526.19;4073063;29;20214;-91
2024/02/06 02:32:29;;;;;;;11.73;6.45;;;;;;;7.88;90.78;98521.78;4061477;29;20210;-90
2024/02/06 02:34:34;;;;;;;10.65;7.32;;;;;;;7.84;90.31;98524.63;4072938;29;20265;-90
2024/02/06 02:36:39;;;;;;;13.27;7.07;;;;;;;7.82;91.44;98523.81;4060960;29;20214;-91
2024/02/06 02:38:44;;;;;;;10.50;7.80;;;;;;;7.79;90.01;98519.66;4074419;29;20728;-89
2024/02/06 02:40:47;;;;;;;12.15;6.70;;;;;;;7.82;91.29;98526.41;4076182;29;20680;-90
2024/02/06 02:42:51;;;;;;;11.32;6.15;;;;;;;7.84;90.72;98519.41;4073923;29;20221;-89
2024/02/06 02:44:54;;;;;;;12.82;7.50;;;;;;;7.79;90.80;98518.81;4078008;29;20234;-90
2024/02/06 02:46:57;;;;;;;12.90;7.07;;;;;;;7.72;90.24;98512.25;4076660;29;20210;-91
2024/02/06 02:49:00;;;;;;;13.73;7.40;;;;;;;7.74;90.07;98511.25;4062263;29;20249;-89
2024/02/06 02:51:03;;;;;;;13.13;7.47;;;;;;;7.70;90.17;98519.28;4073900;29;20217;-89
2024/02/06 02:53:06;;;;;;;11.98;6.72;;;;;;;7.68;91.32;98510.72;4075349;29;20687;-90
2024/02/06 02:55:11;;;;;;;13.97;7.07;;;;;;;7.62;91.39;98511.88;4071297;29;20316;-90
2024/02/06 02:57:14;;;;;;;12.65;7.70;;;;;;;7.62;90.23;98506.69;4086149;28;20633;-92
2024/02/06 02:59:17;;;;;;;12.88;7.10;;;;;;;7.57;90.65;98505.22;4075794;29;20261;-90
2024/02/06 03:01:20;;;;;;;12.57;7.40;;;;;;;7.55;89.62;98505.31;4063427;29;20230;-90
2024/02/06 03:03:24;;;;;;;12.88;6.65;;;;;;;7.51;89.94;98503.75;4075533;29;20701;-90
2024/02/06 03:05:27;;;;;;;11.23;7.03;;;;;;;7.53;90.37;98501.09;4065747;29;20384;-88
2024/02/06 03:07:30;;;;;;;14.43;7.20;;;;;;;7.50;89.93;98501.25;4060635;29;20273;-90
2024/02/06 03:09:35;;;;;;;13.68;7.72;;;;;;;7.50;90.12;98493.47;4073330;29;20354;-90
2024/02/06 03:11:39;;;;;;;13.90;7.55;;;;;;;7.43;90.21;98499.03;4073255;29;20608;-90
2024/02/06 03:13:43;;;;;;;10.70;7.40;;;;;;;7.42;91.01;98492.19;4063764;29;20245;-90
2024/02/06 03:15:46;;;;;;;11.77;7.35;;;;;;;7.43;90.25;98494.69;4075761;29;20709;-90
2024/02/06 03:17:51;;;;;;;13.68;7.70;;;;;;;7.38;90.96;98485.44;4077705;29;20216;-89
2024/02/06 03:19:55;;;;;;;11.98;6.28;;;;;;;7.43;90.81;98499.88;4060415;29;20214;-89
2024/02/06 03:21:58;;;;;;;14.68;7.47;;;;;;;7.47;90.35;98495.38;4075343;29;20237;-90
2024/02/06 03:24:02;;;;;;;12.45;7.38;;;;;;;7.45;90.62;98484.25;4079920;29;20578;-90
2024/02/06 03:26:05;;;;;;;12.02;7.18;;;;;;;7.44;90.54;98488.56;4079427;29;20209;-90
2024/02/06 03:28:10;;;;;;;11.60;7.45;;;;;;;7.44;90.14;98496.34;4073814;29;20212;-91
2024/02/06 03:30:13;;;;;;;16.77;7.85;;;;;;;7.39;90.46;98498.34;4069902;29;20210;-91
2024/02/06 03:32:16;;;;;;;14.70;8.00;;;;;;;7.41;91.75;98493.91;4091554;28;20216;-91
2024/02/06 03:34:19;;;;;;;12.73;7.10;;;;;;;7.41;91.91;98498.28;4090448;28;20297;-91
2024/02/06 03:36:22;;;;;;;10.88;6.70;;;;;;;7.41;91.70;98504.28;4058388;29;20235;-91
2024/02/06 03:38:25;;;;;;;14.48;7.40;;;;;;;7.45;90.34;98503.22;4077902;29;20296;-89
2024/02/06 03:40:28;;;;;;;16.17;8.05;;;;;;;7.43;90.68;98504.22;4059299;29;20236;-91
2024/02/06 03:42:31;;;;;;;12.63;7.45;;;;;;;7.42;91.03;98503.38;4077475;29;20229;-89
2024/02/06 03:44:36;;;;;;;12.57;7.85;;;;;;;7.40;91.19;98507.81;4059935;29;20214;-90
2024/02/06 03:46:39;;;;;;;15.07;7.82;;;;;;;7.38;90.81;98498.41;4075595;29;20210;-90
2024/02/06 03:48:43;;;;;;;13.07;7.95;;;;;;;7.40;91.56;98504.41;4079353;29;20217;-91
2024/02/06 03:50:46;;;;;;;13.98;7.45;;;;;;;7.38;90.87;98507.06;4076713;29;20220;-90
2024/02/06 03:52:51;;;;;;;13.43;7.25;;;;;;;7.38;90.11;98511.38;4076034;29;20269;-90
2024/02/06 03:54:53;;;;;;;14.35;7.10;;;;;;;7.35;89.78;98517.59;4078998;29;20218;-89
2024/02/06 03:56:57;;;;;;;13.88;7.45;;;;;;;7.34;91.01;98518.50;4061865;29;20302;-90
2024/02/06 03:59:00;;;;;;;11.38;7.03;;;;;;;7.29;90.59;98515.28;4064305;29;20216;-90
2024/02/06 04:01:05;;;;;;;11.27;6.93;;;;;;;7.28;90.04;98513.59;4080125;29;20248;-90
2024/02/06 04:03:08;;;;;;;12.85;7.28;;;;;;;7.25;90.11;98516.34;4075234;29;20230;-91
2024/02/06 04:05:12;;;;;;;15.48;7.00;;;;;;;7.29;90.05;98511.84;4075781;29;20277;-90
2024/02/06 04:07:15;;;;;;;16.17;7.25;;;;;;;7.31;91.44;98510.03;4063095;29;20226;-90
2024/02/06 04:09:19;;;;;;;13.48;7.13;;;;;;;7.35;90.41;98512.41;4063124;29;20211;-90
2024/02/06 04:11:22;;;;;;;12.82;6.65;;;;;;;7.36;91.02;98514.06;4063591;29;20561;-89
2024/02/06 04:13:25;;;;;;;14.52;6.82;;;;;;;7.36;90.18;98524.44;4077598;29;20214;-90
2024/02/06 04:15:28;;;;;;;18.48;7.20;;;;;;;7.37;90.39;98518.34;4078513;29;20598;-89
2024/02/06 04:17:33;;;;;;;13.75;7.00;;;;;;;7.38;89.46;98525.22;4063294;29;20668;-90
2024/02/06 04:19:35;;;;;;;12.65;7.13;;;;;;;7.40;90.35;98517.38;4077130;29;20615;-89
2024/02/06 04:21:39;;;;;;;10.20;6.00;;;;;;;7.42;89.58;98520.72;4070876;29;20228;-92
2024/02/06 04:23:42;;;;;;;11.32;7.18;;;;;;;7.43;90.72;98504.22;4057527;29;20285;-90
2024/02/06 04:25:44;;;;;;;10.35;6.63;;;;;;;7.34;89.57;98526.28;4060809;29;20278;-91
2024/02/06 04:27:48;;;;;;;9.80;6.65;;;;;;;7.33;89.97;98524.59;4068523;29;20221;-91
2024/02/06 04:29:51;;;;;;;16.33;7.20;;;;;;;7.38;90.39;98522.63;4074481;29;20308;-91
2024/02/06 04:31:54;;;;;;;11.18;6.30;;;;;;;7.35;90.56;98506.34;4075053;29;20455;-89
2024/02/06 04:33:59;;;;;;;11.48;6.35;;;;;;;7.37;89.53;98520.94;4064337;29;20311;-90
2024/02/06 04:36:02;;;;;;;10.75;6.25;;;;;;;7.39;89.90;98519.09;4075854;29;20245;-89
2024/02/06 04:38:06;;;;;;;13.55;6.10;;;;;;;7.38;90.58;98511.38;4078037;29;20301;-91
2024/02/06 04:40:10;;;;;;;13.27;6.45;;;;;;;7.37;90.92;98518.34;4076119;29;20285;-88
2024/02/06 04:42:14;;;;;;;10.38;6.38;;;;;;;7.40;90.73;98510.41;4081323;29;20300;-91
2024/02/06 04:44:17;;;;;;;17.85;7.28;;;;;;;7.44;89.76;98511.91;4063835;29;20651;-90
2024/02/06 04:46:21;;;;;;;12.52;6.65;;;;;;;7.44;90.87;98501.53;4075482;29;20198;-91
2024/02/06 04:48:24;;;;;;;10.48;7.28;;;;;;;7.49;89.74;98509.97;4085862;28;20239;-90
2024/02/06 04:50:29;;;;;;;14.35;7.32;;;;;;;7.46;89.91;98496.28;4063854;29;20213;-91
2024/02/06 04:52:32;;;;;;;12.35;6.93;;;;;;;7.41;89.46;98498.28;4075153;29;20250;-90
2024/02/06 04:54:42;;;;;;;10.50;7.30;;;;;;;7.37;91.00;98491.56;4064007;29;20676;-89
2024/02/06 04:56:46;;;;;;;11.65;6.85;;;;;;;7.38;90.21;98486.31;4079742;29;20764;-91
2024/02/06 04:58:49;;;;;;;12.02;7.38;;;;;;;7.34;91.04;98484.78;4078962;29;20305;-90
2024/02/06 05:00:52;;;;;;;15.80;7.40;;;;;;;7.37;90.17;98484.63;4076693;29;20217;-91
2024/02/06 05:02:56;;;;;;;11.40;7.20;;;;;;;7.39;91.39;98481.94;4068529;29;20214;-91
2024/02/06 05:05:00;;;;;;;11.90;6.95;;;;;;;7.37;90.17;98476.84;4064409;29;20285;-89
2024/02/06 05:07:05;;;;;;;8.98;6.45;;;;;;;7.42;91.40;98477.44;4079350;29;20218;-90
2024/02/06 05:09:08;;;;;;;15.40;7.72;;;;;;;7.44;91.31;98465.22;4073332;29;20597;-91
2024/02/06 05:11:12;;;;;;;12.27;6.35;;;;;;;7.48;90.51;98466.75;4063468;29;20216;-90
2024/02/06 05:13:14;;;;;;;12.02;7.13;;;;;;;7.48;90.01;98464.16;4079308;29;20210;-90
2024/02/06 05:15:18;;;;;;;12.07;6.90;;;;;;;7.48;90.15;98458.97;4075805;29;20788;-90
2024/02/06 05:17:21;;;;;;;11.15;6.70;;;;;;;7.52;90.02;98463.94;4092600;28;20299;-91
2024/02/06 05:19:24;;;;;;;9.77;7.63;;;;;;;7.57;90.39;98455.91;4088243;28;20213;-90
2024/02/06 05:21:28;;;;;;;13.38;7.05;;;;;;;7.60;90.38;98454.00;4076849;29;20206;-91
2024/02/06 05:23:31;;;;;;;14.43;7.20;;;;;;;7.66;89.54;98455.44;4061678;29;20625;-91
2024/02/06 05:25:34;;;;;;;9.73;6.65;;;;;;;7.70;89.97;98444.00;4075074;29;20296;-90
2024/02/06 05:27:39;;;;;;;11.00;7.28;;;;;;;7.75;89.33;98454.97;4074378;29;20237;-89
2024/02/06 05:29:42;;;;;;;16.15;8.30;;;;;;;7.79;89.21;98452.16;4051376;29;20588;-90
2024/02/06 05:31:44;;;;;;;11.07;6.75;;;;;;;7.84;89.54;98449.31;4057375;29;20218;-90
2024/02/06 05:33:48;;;;;;;10.90;6.70;;;;;;;7.89;89.31;98455.09;4072293;29;20217;-90
2024/02/06 05:35:51;;;;;;;11.90;7.03;;;;;;;7.93;89.89;98449.66;4075667;29;20684;-91
2024/02/06 05:37:54;;;;;;;10.75;6.70;;;;;;;7.97;89.72;98459.81;4066103;29;20210;-91
2024/02/06 05:39:59;;;;;;;10.13;5.93;;;;;;;8.02;89.16;98454.38;4073530;29;20729;-89
2024/02/06 05:42:03;;;;;;;12.65;5.93;;;;;;;8.06;89.36;98454.16;4072073;29;20206;-90
2024/02/06 05:44:06;;;;;;;11.23;6.25;;;;;;;8.08;89.23;98452.31;4078253;29;20265;-90
2024/02/06 05:46:09;;;;;;;10.68;6.13;;;;;;;8.11;88.68;98446.13;4091700;28;21302;-87
2024/02/06 05:48:13;;;;;;;10.60;6.40;;;;;;;8.14;87.89;98443.38;4087888;28;20198;-90
2024/02/06 05:50:16;;;;;;;8.95;5.93;;;;;;;8.13;87.20;98447.75;4077487;29;20220;-91
2024/02/06 05:52:19;;;;;;;14.10;7.00;;;;;;;8.10;87.52;98447.88;4076970;29;20209;-91
2024/02/06 05:54:22;;;;;;;11.32;6.10;;;;;;;8.07;88.09;98437.66;4075337;29;20679;-90
2024/02/06 05:56:27;;;;;;;10.27;5.60;;;;;;;8.01;87.61;98437.97;4072030;29;20226;-83
2024/02/06 05:58:30;;;;;;;8.90;5.65;;;;;;;8.04;88.12;98439.56;4071045;29;20677;-83
2024/02/06 06:00:34;;;;;;;9.80;5.80;;;;;;;8.08;88.08;98439.31;4061422;29;20626;-83
2024/02/06 06:02:36;;;;;;;11.90;5.53;;;;;;;8.11;87.04;98440.91;4083130;28;20209;-83
2024/02/06 06:04:39;;;;;;;9.23;5.82;;;;;;;8.10;87.78;98441.84;4082936;28;20646;-83
2024/02/06 06:06:44;;;;;;;17.20;6.63;;;;;;;8.06;87.08;98443.75;4069312;29;20671;-84
2024/02/06 06:08:47;;;;;;;7.97;5.95;;;;;;;8.08;87.35;98439.31;4071974;29;20314;-83
2024/02/06 06:10:51;;;;;;;9.45;6.03;;;;;;;8.11;86.52;98444.38;4089878;28;20237;-84
2024/02/06 06:12:55;;;;;;;9.13;5.80;;;;;;;8.15;87.95;98443.31;4058283;29;20620;-84
2024/02/06 06:14:59;;;;;;;13.40;6.43;;;;;;;8.17;86.34;98449.25;4058210;29;20211;-84
2024/02/06 06:17:02;;;;;;;10.20;5.07;;;;;;;8.18;86.73;98443.16;4072013;29;20269;-83
2024/02/06 06:19:05;;;;;;;9.75;6.30;;;;;;;8.18;86.64;98437.94;4074453;29;20226;-83
2024/02/06 06:21:09;;;;;;;10.13;5.53;;;;;;;8.20;85.61;98437.88;4058871;29;20225;-83
2024/02/06 06:23:12;;;;;;;10.02;5.38;;;;;;;8.20;86.52;98443.91;4072270;29;20218;-83
2024/02/06 06:25:15;;;;;;;9.00;5.80;;;;;;;8.24;87.03;98436.75;4056878;29;20248;-83
2024/02/06 06:27:19;;;;;;;9.18;5.38;;;;;;;8.27;85.91;98434.00;4073888;29;20674;-83
2024/02/06 06:29:22;;;;;;;10.45;5.47;;;;;;;8.30;85.93;98439.03;4073367;29;20301;-83
2024/02/06 06:31:30;;;;;;;7.18;5.20;;;;;;;8.30;86.35;98432.09;4072009;29;20202;-84
2024/02/06 06:33:33;;;;;;;10.85;6.07;;;;;;;8.32;85.80;98432.03;4072565;29;20233;-84
2024/02/06 06:35:37;;;;;;;8.35;5.13;;;;;;;8.32;86.21;98430.25;4073927;29;20724;-83
2024/02/06 06:37:40;;;;;;;10.13;5.28;;;;;;;8.34;85.94;98435.38;4077749;28;20407;-84
2024/02/06 06:39:44;;;;;;;7.70;4.60;;;;;;;8.36;86.32;98438.72;4055392;29;20206;-84
2024/02/06 06:41:47;;;;;;;8.30;5.78;;;;;;;8.32;85.72;98432.84;4075696;29;20297;-84
2024/02/06 06:43:51;;;;;;;8.98;5.53;;;;;;;8.33;86.14;98444.06;4050736;29;20211;-84
2024/02/06 06:45:56;;;;;;;10.93;5.72;;;;;;;8.36;85.06;98438.72;4091668;28;20268;-83
2024/02/06 06:47:59;;;;;;;8.85;5.63;;;;;;;8.37;85.69;98441.22;4072371;29;20797;-84
2024/02/06 06:50:03;;;;;;;9.55;6.57;;;;;;;8.41;85.28;98436.72;4069740;29;20202;-83
2024/02/06 06:52:08;;;;;;;9.70;5.67;;;;;;;8.42;85.68;98431.44;4059617;29;20301;-83
2024/02/06 06:54:11;;;;;;;12.20;7.30;;;;;;;8.44;85.68;98435.59;4077063;29;21250;-83
2024/02/06 06:56:17;;;;;;;9.85;5.53;;;;;;;8.43;85.23;98433.09;4065867;29;21277;-83
2024/02/06 06:58:21;;;;;;;8.67;5.00;;;;;;;8.41;85.17;98437.56;4088766;28;20323;-83
2024/02/06 07:00:24;;;;;;;10.80;4.80;;;;;;;8.43;85.74;98435.69;4084061;28;20720;-83
2024/02/06 07:02:28;;;;;;;9.23;4.90;;;;;;;8.46;85.64;98441.59;4092130;28;20676;-83
2024/02/06 07:04:32;;;;;;;7.10;4.63;;;;;;;8.49;85.60;98440.56;4090359;28;20214;-83
2024/02/06 07:06:35;;;;;;;8.27;4.90;;;;;;;8.46;85.65;98430.34;4079781;29;20673;-87
2024/02/06 07:08:41;;;;;;;12.77;6.05;;;;;;;8.40;84.72;98425.47;4077195;29;20257;-89
2024/02/06 07:10:44;;;;;;;9.10;5.80;;;;;;;8.33;85.51;98431.94;4080642;29;20304;-89
2024/02/06 07:12:48;;;;;;;10.18;4.70;;;;;;;8.21;86.71;98432.59;4054741;29;20222;-89
2024/02/06 07:14:51;;;;;;;8.77;6.20;;;;;;;8.17;85.70;98433.66;4070430;29;20235;-88
2024/02/06 07:16:54;;;;;;;7.18;5.47;;;;;;;8.12;86.37;98445.25;4073511;29;20261;-89
2024/02/06 07:18:58;;;;;;;11.40;6.40;;;;;;;7.98;87.26;98430.34;4075269;29;20218;-92
2024/02/06 07:21:01;;;;;;;11.02;6.20;;;;;;;7.98;87.01;98440.75;4069719;29;20289;-91
2024/02/06 07:23:04;;;;;;;9.85;5.90;;;;;;;7.97;86.84;98441.66;4072025;29;20261;-91
2024/02/06 07:25:09;;;;;;;11.57;6.03;;;;;;;7.94;88.51;98434.91;4056934;29;20520;-88
2024/02/06 07:27:11;;;;;;;7.85;5.40;;;;;;;7.92;86.97;98442.78;4072554;29;20813;-89
2024/02/06 07:29:15;;;;;;;8.23;5.53;;;;;;;7.90;87.31;98446.41;4065949;29;20226;-89
2024/02/06 07:31:17;;;;;;;8.32;6.00;;;;;;;7.86;87.27;98431.91;4055067;29;20278;-91
2024/02/06 07:33:20;;;;;;;9.27;5.70;;;;;;;7.85;86.51;98445.78;4054134;29;20211;-87
2024/02/06 07:35:25;;;;;;;8.85;5.90;;;;;;;7.86;86.86;98442.28;4058856;29;20306;-91
2024/02/06 07:37:28;;;;;;;11.93;7.35;;;;;;;7.81;88.15;98436.50;4070275;29;20341;-89
2024/02/06 07:39:31;;;;;;;8.73;6.15;;;;;;;7.73;88.13;98441.25;4071758;29;20705;-89
2024/02/06 07:41:35;;;;;;;10.90;6.30;;;;;;;7.72;87.77;98443.00;4051150;29;20218;-90
2024/02/06 07:43:38;;;;;;;11.20;5.75;;;;;;;7.72;87.15;98439.56;4077342;29;20234;-90
2024/02/06 07:45:41;;;;;;;8.80;6.05;;;;;;;7.63;87.65;98456.44;4064551;29;20210;-89
2024/02/06 07:47:46;;;;;;;10.15;6.10;;;;;;;7.59;87.37;98448.88;4073655;29;20209;-88
2024/02/06 07:49:49;;;;;;;8.02;5.03;;;;;;;7.47;88.65;98446.09;4078471;29;20218;-89
2024/02/06 07:51:54;;;;;;;8.63;6.43;;;;;;;7.39;87.19;98446.47;4073325;29;20719;-86
2024/02/06 07:53:58;;;;;;;10.98;6.70;;;;;;;7.23;88.34;98442.97;4071431;29;20300;-88
2024/02/06 07:56:04;;;;;;;9.25;6.18;;;;;;;7.18;89.03;98436.31;4059287;29;20215;-91
2024/02/06 07:58:07;;;;;;;10.25;6.07;;;;;;;7.14;89.11;98442.56;4068145;29;20241;-88
2024/02/06 08:00:12;;;;;;;10.32;6.70;;;;;;;7.15;89.04;98446.84;4074420;29;20209;-86
2024/02/06 08:02:17;;;;;;;7.75;5.72;;;;;;;7.04;89.88;98447.38;4059444;29;20214;-91
2024/02/06 08:04:21;;;;;;;8.30;6.05;;;;;;;6.98;90.38;98444.25;4074947;29;20206;-87
2024/02/06 08:06:23;;;;;;;9.52;6.18;;;;;;;7.02;89.78;98458.72;4074245;29;20259;-88
2024/02/06 08:08:28;;;;;;;9.32;5.95;;;;;;;6.95;90.37;98456.53;4069394;29;20659;-88
2024/02/06 08:10:31;;;;;;;12.15;5.75;;;;;;;6.97;90.50;98458.09;4073787;29;20306;-88
2024/02/06 08:12:34;;;;;;;14.48;6.93;;;;;;;7.00;90.82;98460.56;4056987;29;20228;-88
2024/02/06 08:14:38;;;;;;;13.88;5.85;;;;;;;7.00;89.86;98457.13;4070205;29;20329;-82
2024/02/06 08:16:41;;;;;;;11.32;5.97;;;;;;;7.01;90.95;98464.00;4074998;29;20751;-83
2024/02/06 08:18:45;;;;;;;10.40;6.88;;;;;;;7.00;90.74;98473.50;4061054;29;20233;-82
2024/02/06 08:20:48;;;;;;;10.70;5.88;;;;;;;7.02;91.07;98465.66;4074794;29;20636;-82
2024/02/06 08:22:51;;;;;;;9.00;6.28;;;;;;;7.05;91.36;98474.97;4073854;29;20215;-81
2024/02/06 08:24:56;;;;;;;12.18;6.00;;;;;;;7.08;89.42;98461.88;4058631;29;20218;-81
2024/02/06 08:26:59;;;;;;;10.45;6.30;;;;;;;7.02;89.33;98434.56;4078449;29;20303;-81
2024/02/06 08:29:01;;;;;;;11.20;6.60;;;;;;;7.00;89.87;98441.56;4077430;29;20296;-81
2024/02/06 08:31:05;;;;;;;8.25;5.90;;;;;;;6.96;89.20;98437.44;4071199;29;20242;-81
2024/02/06 08:33:08;;;;;;;8.13;4.90;;;;;;;6.96;89.83;98434.84;4084112;28;20216;-81
2024/02/06 08:35:11;;;;;;;7.70;5.20;;;;;;;6.98;89.62;98431.28;4068778;29;20239;-82
2024/02/06 08:37:14;;;;;;;10.63;5.72;;;;;;;7.05;89.29;98435.22;4062455;29;20214;-82
2024/02/06 08:39:19;;;;;;;8.57;5.07;;;;;;;7.10;89.51;98439.28;4059417;29;20591;-81
2024/02/06 08:41:28;;;;;;;7.82;5.00;;;;;;;7.23;89.67;98445.56;4072775;29;20775;-82
2024/02/06 08:43:32;;;;;;;7.82;5.43;;;;;;;7.34;88.82;98435.47;4073241;29;20677;-82
2024/02/06 08:45:51;;;;;;;11.48;5.20;;;;;;;7.45;88.96;98437.53;4074237;29;20214;-81
2024/02/06 08:47:54;;;;;;;10.32;4.90;;;;;;;7.49;87.03;98432.13;4074626;29;20212;-82
2024/02/06 08:49:57;;;;;;;6.97;4.95;;;;;;;7.45;87.50;98433.19;4063220;29;20317;-82
2024/02/06 08:52:01;;;;;;;7.03;4.53;;;;;;;7.50;87.62;98434.63;4077170;29;20202;-82
2024/02/06 08:54:04;;;;;;;7.57;4.80;;;;;;;7.57;87.34;98429.97;4080468;29;20608;-82
2024/02/06 08:56:08;;;;;;;6.28;4.22;;;;;;;7.64;88.19;98426.16;4078179;29;20922;-81
2024/02/06 08:58:13;;;;;;;7.05;4.53;;;;;;;7.75;86.95;98429.84;4076170;29;20651;-82
2024/02/06 09:00:17;;;;;;;8.38;4.60;;;;;;;7.84;86.86;98424.19;4076681;29;20209;-82
2024/02/06 09:02:21;;;;;;;8.05;5.05;;;;;;;7.87;86.38;98424.03;4061673;29;20242;-81
2024/02/06 09:04:24;;;;;;;6.25;4.30;;;;;;;7.73;87.85;98421.31;4079385;29;20265;-82
2024/02/06 09:06:27;;;;;;;6.35;4.20;;;;;;;7.78;87.77;98416.72;4071140;29;20663;-81
2024/02/06 09:08:32;;;;;;;8.68;4.32;;;;;;;7.88;87.16;98419.66;4079148;29;20202;-82
2024/02/06 09:10:34;;;;;;;6.00;3.85;;;;;;;7.92;86.53;98416.00;4060081;29;20226;-81
2024/02/06 09:12:37;;;;;;;6.93;3.88;;;;;;;8.01;87.45;98414.59;4077728;29;20217;-82
2024/02/06 09:14:42;;;;;;;6.75;4.63;;;;;;;8.13;88.08;98418.31;4072296;29;20271;-82
2024/02/06 09:16:47;;;;;;;11.32;6.90;;;;;;;8.17;87.94;98417.25;4071518;29;20529;-81
2024/02/06 09:18:51;;;;;;;6.00;3.85;;;;;;;8.20;87.34;98414.50;4060915;29;20233;-83
2024/02/06 09:20:55;;;;;;;5.05;3.75;;;;;;;8.16;86.80;98411.22;4073024;29;20213;-81
2024/02/06 09:22:58;;;;;;;9.80;4.35;;;;;;;8.19;87.61;98412.81;4090251;28;20206;-82
2024/02/06 09:25:01;;;;;;;7.95;4.40;;;;;;;8.19;86.17;98408.44;4071440;29;20214;-82
2024/02/06 09:27:05;;;;;;;5.30;3.35;;;;;;;8.27;87.49;98406.28;4078913;29;20297;-82
2024/02/06 09:29:08;;;;;;;10.20;4.00;;;;;;;8.42;86.60;98408.06;4077649;29;20285;-81
2024/02/06 09:31:13;;;;;;;8.25;4.50;;;;;;;8.51;86.75;98407.56;4076896;29;20230;-81
2024/02/06 09:33:16;;;;;;;9.85;4.30;;;;;;;8.59;86.07;98406.19;4062329;29;20222;-81
2024/02/06 09:35:20;;;;;;;6.47;4.00;;;;;;;8.67;85.16;98405.75;4077036;29;20241;-83
2024/02/06 09:37:23;;;;;;;6.32;3.90;;;;;;;8.66;85.15;98398.88;4068130;29;20222;-84
2024/02/06 09:39:26;;;;;;;6.40;4.20;;;;;;;8.58;84.39;98404.50;4072583;29;20237;-83
2024/02/06 09:41:29;;;;;;;12.13;6.30;;;;;;;8.60;84.45;98405.28;4078652;29;20233;-83
2024/02/06 09:43:32;;;;;;;8.88;5.30;;;;;;;8.58;84.47;98412.28;4076635;29;20206;-83
2024/02/06 09:45:36;;;;;;;8.57;4.55;;;;;;;8.62;84.31;98415.59;4062449;29;20625;-82